<?xml version="1.0" encoding="UTF-8" standalone="no" ?>
<gpx xmlns="http://www.topografix.com/GPX/1/1" xmlns:xsi="http://www.w3.org/2001/XMLSchema-instance" xsi:schemaLocation="http://www.topografix.com/GPX/1/1 http://www.topografix.com/GPX/1/1/gpx.xsd" version="1.1" creator="VisuGPX - https://www.visugpx.com">
  <metadata>
    <name>Pic St loup</name>
    <desc><![CDATA[Montée du Pic St loup depuis Cazevieille]]></desc>
  </metadata>
  <trk>
    <name><![CDATA[Move]]></name>
    <trkseg>
      <trkpt lat="43.77058" lon="3.79259">
        <ele>300.39999389648</ele>
        <time>2018-07-10T07:46:36.021Z</time>
      </trkpt>
      <trkpt lat="43.77056" lon="3.79206">
        <ele>296.9283063035</ele>
        <time>2018-07-10T07:47:34.021Z</time>
      </trkpt>
      <trkpt lat="43.77086" lon="3.79156">
        <ele>300.16926873457</ele>
        <time>2018-07-10T07:48:36.021Z</time>
      </trkpt>
      <trkpt lat="43.77114" lon="3.79122">
        <ele>305.80620626828</ele>
        <time>2018-07-10T07:49:34.021Z</time>
      </trkpt>
      <trkpt lat="43.77154" lon="3.79141">
        <ele>314.32172193899</ele>
        <time>2018-07-10T07:50:34.021Z</time>
      </trkpt>
      <trkpt lat="43.77184" lon="3.79164">
        <ele>322</ele>
        <time>2018-07-10T07:51:36.021Z</time>
      </trkpt>
      <trkpt lat="43.77199" lon="3.79217">
        <ele>324.25775783535</ele>
        <time>2018-07-10T07:52:34.021Z</time>
      </trkpt>
      <trkpt lat="43.77225" lon="3.79212">
        <ele>332.41861880485</ele>
        <time>2018-07-10T07:53:34.021Z</time>
      </trkpt>
      <trkpt lat="43.77259" lon="3.79243">
        <ele>344.86576532828</ele>
        <time>2018-07-10T07:54:36.021Z</time>
      </trkpt>
      <trkpt lat="43.77289" lon="3.79272">
        <ele>351.61241253656</ele>
        <time>2018-07-10T07:55:34.021Z</time>
      </trkpt>
      <trkpt lat="43.77299" lon="3.7932">
        <ele>363.72312289149</ele>
        <time>2018-07-10T07:56:35.021Z</time>
      </trkpt>
      <trkpt lat="43.77303" lon="3.79356">
        <ele>370.90310313414</ele>
        <time>2018-07-10T07:57:34.021Z</time>
      </trkpt>
      <trkpt lat="43.77308" lon="3.79399">
        <ele>377.35465470121</ele>
        <time>2018-07-10T07:59:34.021Z</time>
      </trkpt>
      <trkpt lat="43.77338" lon="3.79416">
        <ele>376.74224216465</ele>
        <time>2018-07-10T08:00:34.021Z</time>
      </trkpt>
      <trkpt lat="43.77353" lon="3.79465">
        <ele>390.29379257856</ele>
        <time>2018-07-10T08:01:36.021Z</time>
      </trkpt>
      <trkpt lat="43.77374" lon="3.79517">
        <ele>397.89669672979</ele>
        <time>2018-07-10T08:02:35.021Z</time>
      </trkpt>
      <trkpt lat="43.77382" lon="3.79542">
        <ele>397.45155156707</ele>
        <time>2018-07-10T08:03:34.021Z</time>
      </trkpt>
      <trkpt lat="43.77412" lon="3.79597">
        <ele>403.87017037192</ele>
        <time>2018-07-10T08:04:34.021Z</time>
      </trkpt>
      <trkpt lat="43.77445" lon="3.79643">
        <ele>410.09689686586</ele>
        <time>2018-07-10T08:05:34.021Z</time>
      </trkpt>
      <trkpt lat="43.77449" lon="3.79688">
        <ele>413.96706723778</ele>
        <time>2018-07-10T08:06:34.021Z</time>
      </trkpt>
      <trkpt lat="43.77448" lon="3.7972">
        <ele>420.90310313414</ele>
        <time>2018-07-10T08:07:34.021Z</time>
      </trkpt>
      <trkpt lat="43.77465" lon="3.79797">
        <ele>423.65175170314</ele>
        <time>2018-07-10T08:09:36.021Z</time>
      </trkpt>
      <trkpt lat="43.77493" lon="3.79866">
        <ele>418.48348364893</ele>
        <time>2018-07-10T08:10:35.021Z</time>
      </trkpt>
      <trkpt lat="43.77513" lon="3.79931">
        <ele>419.26296239825</ele>
        <time>2018-07-10T08:11:37.021Z</time>
      </trkpt>
      <trkpt lat="43.77517" lon="3.79993">
        <ele>423.75825817553</ele>
        <time>2018-07-10T08:12:35.021Z</time>
      </trkpt>
      <trkpt lat="43.77531" lon="3.80042">
        <ele>424.69649659371</ele>
        <time>2018-07-10T08:13:36.021Z</time>
      </trkpt>
      <trkpt lat="43.77541" lon="3.80091">
        <ele>428.41321308085</ele>
        <time>2018-07-10T08:14:35.021Z</time>
      </trkpt>
      <trkpt lat="43.77548" lon="3.80117">
        <ele>431.09689686586</ele>
        <time>2018-07-10T08:15:34.021Z</time>
      </trkpt>
      <trkpt lat="43.77554" lon="3.80167">
        <ele>433.25875851571</ele>
        <time>2018-07-10T08:16:36.021Z</time>
      </trkpt>
      <trkpt lat="43.77558" lon="3.80217">
        <ele>441.61981962128</ele>
        <time>2018-07-10T08:17:35.021Z</time>
      </trkpt>
      <trkpt lat="43.77561" lon="3.80241">
        <ele>444.74224216465</ele>
        <time>2018-07-10T08:18:34.021Z</time>
      </trkpt>
      <trkpt lat="43.77566" lon="3.80294">
        <ele>442</ele>
        <time>2018-07-10T08:19:34.021Z</time>
      </trkpt>
      <trkpt lat="43.77577" lon="3.80345">
        <ele>437.03293276222</ele>
        <time>2018-07-10T08:20:34.021Z</time>
      </trkpt>
      <trkpt lat="43.77579" lon="3.804">
        <ele>438.22482507313</ele>
        <time>2018-07-10T08:21:34.021Z</time>
      </trkpt>
      <trkpt lat="43.77575" lon="3.8047">
        <ele>445.64534529879</ele>
        <time>2018-07-10T08:22:34.021Z</time>
      </trkpt>
      <trkpt lat="43.77577" lon="3.80517">
        <ele>444</ele>
        <time>2018-07-10T08:23:34.021Z</time>
      </trkpt>
      <trkpt lat="43.77588" lon="3.8058">
        <ele>450.32172193899</ele>
        <time>2018-07-10T08:24:34.021Z</time>
      </trkpt>
      <trkpt lat="43.77589" lon="3.80622">
        <ele>461.61241253656</ele>
        <time>2018-07-10T08:25:34.021Z</time>
      </trkpt>
      <trkpt lat="43.77602" lon="3.80702">
        <ele>463.79339345957</ele>
        <time>2018-07-10T08:26:35.021Z</time>
      </trkpt>
      <trkpt lat="43.77633" lon="3.80758">
        <ele>462.55165163511</ele>
        <time>2018-07-10T08:27:35.021Z</time>
      </trkpt>
      <trkpt lat="43.77651" lon="3.80822">
        <ele>464.30350340629</ele>
        <time>2018-07-10T08:28:36.021Z</time>
      </trkpt>
      <trkpt lat="43.77664" lon="3.80892">
        <ele>468.25875851571</ele>
        <time>2018-07-10T08:29:36.021Z</time>
      </trkpt>
      <trkpt lat="43.77673" lon="3.80948">
        <ele>477.72312289149</ele>
        <time>2018-07-10T08:30:35.021Z</time>
      </trkpt>
      <trkpt lat="43.77685" lon="3.80995">
        <ele>482.34504509468</ele>
        <time>2018-07-10T08:31:35.021Z</time>
      </trkpt>
      <trkpt lat="43.77679" lon="3.81053">
        <ele>483.25775783535</ele>
        <time>2018-07-10T08:32:34.021Z</time>
      </trkpt>
      <trkpt lat="43.77664" lon="3.81089">
        <ele>501.03703542357</ele>
        <time>2018-07-10T08:33:37.021Z</time>
      </trkpt>
      <trkpt lat="43.77666" lon="3.81153">
        <ele>503.16086096949</ele>
        <time>2018-07-10T08:35:34.021Z</time>
      </trkpt>
      <trkpt lat="43.77673" lon="3.81213">
        <ele>511.96706723778</ele>
        <time>2018-07-10T08:36:34.021Z</time>
      </trkpt>
      <trkpt lat="43.77672" lon="3.81277">
        <ele>521.25875851571</ele>
        <time>2018-07-10T08:37:36.021Z</time>
      </trkpt>
      <trkpt lat="43.77668" lon="3.81342">
        <ele>532.77627554714</ele>
        <time>2018-07-10T08:38:36.021Z</time>
      </trkpt>
      <trkpt lat="43.77693" lon="3.8137">
        <ele>541.61241253656</ele>
        <time>2018-07-10T08:39:34.021Z</time>
      </trkpt>
      <trkpt lat="43.77704" lon="3.81389">
        <ele>552.437738078</ele>
        <time>2018-07-10T08:42:36.021Z</time>
      </trkpt>
      <trkpt lat="43.77713" lon="3.81371">
        <ele>549.44834836489</ele>
        <time>2018-07-10T08:43:35.021Z</time>
      </trkpt>
      <trkpt lat="43.77733" lon="3.81363">
        <ele>553.41321308085</ele>
        <time>2018-07-10T08:44:35.021Z</time>
      </trkpt>
      <trkpt lat="43.77749" lon="3.81357">
        <ele>556.44834836489</ele>
        <time>2018-07-10T08:45:35.021Z</time>
      </trkpt>
      <trkpt lat="43.77753" lon="3.81306">
        <ele>563.72312289149</ele>
        <time>2018-07-10T08:46:35.021Z</time>
      </trkpt>
      <trkpt lat="43.7777" lon="3.81287">
        <ele>572.70930940242</ele>
        <time>2018-07-10T08:47:34.021Z</time>
      </trkpt>
      <trkpt lat="43.77785" lon="3.81263">
        <ele>575.24814822882</ele>
        <time>2018-07-10T08:48:37.021Z</time>
      </trkpt>
      <trkpt lat="43.77801" lon="3.8122">
        <ele>588.75825817553</ele>
        <time>2018-07-10T08:50:35.021Z</time>
      </trkpt>
      <trkpt lat="43.77811" lon="3.81243">
        <ele>597.06816798617</ele>
        <time>2018-07-10T08:51:35.021Z</time>
      </trkpt>
      <trkpt lat="43.77823" lon="3.81233">
        <ele>605.91051021886</ele>
        <time>2018-07-10T08:52:36.021Z</time>
      </trkpt>
      <trkpt lat="43.77834" lon="3.81234">
        <ele>621.68678576599</ele>
        <time>2018-07-10T08:53:36.021Z</time>
      </trkpt>
      <trkpt lat="43.77845" lon="3.81226">
        <ele>627.04474489057</ele>
        <time>2018-07-10T08:54:36.021Z</time>
      </trkpt>
      <trkpt lat="43.77851" lon="3.81212">
        <ele>627.65495490532</ele>
        <time>2018-07-10T08:55:35.021Z</time>
      </trkpt>
      <trkpt lat="43.77846" lon="3.8117">
        <ele>630.30350340629</ele>
        <time>2018-07-10T08:56:36.021Z</time>
      </trkpt>
      <trkpt lat="43.77862" lon="3.81151">
        <ele>638.72312289149</ele>
        <time>2018-07-10T08:57:35.021Z</time>
      </trkpt>
      <trkpt lat="43.77879" lon="3.81146">
        <ele>648.91051021886</ele>
        <time>2018-07-10T08:59:36.021Z</time>
      </trkpt>
      <trkpt lat="43.77899" lon="3.8114">
        <ele>657.82852874361</ele>
        <time>2018-07-10T09:01:35.021Z</time>
      </trkpt>
      <trkpt lat="43.77886" lon="3.81141">
        <ele>658.76666594061</ele>
        <time>2018-07-10T09:02:37.021Z</time>
      </trkpt>
      <trkpt lat="43.77892" lon="3.81118">
        <ele>663.51111062707</ele>
        <time>2018-07-10T09:05:37.021Z</time>
      </trkpt>
      <trkpt lat="43.77881" lon="3.81116">
        <ele>673.78888719475</ele>
        <time>2018-07-10T09:07:37.021Z</time>
      </trkpt>
      <trkpt lat="43.77891" lon="3.81116">
        <ele>664.00971082772</ele>
        <time>2018-07-10T09:08:36.021Z</time>
      </trkpt>
      <trkpt lat="43.77897" lon="3.81132">
        <ele>656.65175170314</ele>
        <time>2018-07-10T09:09:36.021Z</time>
      </trkpt>
      <trkpt lat="43.77904" lon="3.81145">
        <ele>652.64534529879</ele>
        <time>2018-07-10T09:11:34.021Z</time>
      </trkpt>
      <trkpt lat="43.77893" lon="3.8115">
        <ele>658.72312289149</ele>
        <time>2018-07-10T09:12:35.021Z</time>
      </trkpt>
      <trkpt lat="43.77889" lon="3.81134">
        <ele>653.34504509468</ele>
        <time>2018-07-10T09:14:35.021Z</time>
      </trkpt>
      <trkpt lat="43.77887" lon="3.81155">
        <ele>656.02222125414</ele>
        <time>2018-07-10T09:20:37.021Z</time>
      </trkpt>
      <trkpt lat="43.7789" lon="3.81139">
        <ele>649.60700681257</ele>
        <time>2018-07-10T09:22:36.021Z</time>
      </trkpt>
      <trkpt lat="43.77881" lon="3.8116">
        <ele>653.39299318743</ele>
        <time>2018-07-10T09:24:36.021Z</time>
      </trkpt>
      <trkpt lat="43.77853" lon="3.81164">
        <ele>638.75185177118</ele>
        <time>2018-07-10T09:26:37.021Z</time>
      </trkpt>
      <trkpt lat="43.77865" lon="3.81204">
        <ele>628.4740752035</ele>
        <time>2018-07-10T09:27:37.021Z</time>
      </trkpt>
      <trkpt lat="43.7785" lon="3.81227">
        <ele>624.34824829686</ele>
        <time>2018-07-10T09:28:36.021Z</time>
      </trkpt>
      <trkpt lat="43.77834" lon="3.81235">
        <ele>620.08948978114</ele>
        <time>2018-07-10T09:29:36.021Z</time>
      </trkpt>
      <trkpt lat="43.77818" lon="3.81248">
        <ele>592.77657792942</ele>
        <time>2018-07-10T09:31:38.021Z</time>
      </trkpt>
      <trkpt lat="43.7779" lon="3.81228">
        <ele>600.36210176</ele>
        <time>2018-07-10T09:32:38.021Z</time>
      </trkpt>
      <trkpt lat="43.77805" lon="3.81276">
        <ele>580.948150407</ele>
        <time>2018-07-10T09:33:37.021Z</time>
      </trkpt>
      <trkpt lat="43.77786" lon="3.8126">
        <ele>577.91051021886</ele>
        <time>2018-07-10T09:34:36.021Z</time>
      </trkpt>
      <trkpt lat="43.77797" lon="3.81286">
        <ele>561.95555749171</ele>
        <time>2018-07-10T09:35:37.021Z</time>
      </trkpt>
      <trkpt lat="43.77758" lon="3.81311">
        <ele>562.61981962128</ele>
        <time>2018-07-10T09:36:35.021Z</time>
      </trkpt>
      <trkpt lat="43.77738" lon="3.81363">
        <ele>562.78598637486</ele>
        <time>2018-07-10T09:37:36.021Z</time>
      </trkpt>
      <trkpt lat="43.77722" lon="3.81366">
        <ele>565.86576532828</ele>
        <time>2018-07-10T09:38:36.021Z</time>
      </trkpt>
      <trkpt lat="43.77708" lon="3.8138">
        <ele>561.97097001931</ele>
        <time>2018-07-10T09:39:33.021Z</time>
      </trkpt>
      <trkpt lat="43.77691" lon="3.81381">
        <ele>551.8504509412</ele>
        <time>2018-07-10T09:40:39.021Z</time>
      </trkpt>
      <trkpt lat="43.77676" lon="3.81373">
        <ele>545.98518583057</ele>
        <time>2018-07-10T09:41:37.021Z</time>
      </trkpt>
      <trkpt lat="43.77693" lon="3.81325">
        <ele>519.88518698372</ele>
        <time>2018-07-10T09:42:36.021Z</time>
      </trkpt>
      <trkpt lat="43.77675" lon="3.81254">
        <ele>509.4200218074</ele>
        <time>2018-07-10T09:44:01.021Z</time>
      </trkpt>
      <trkpt lat="43.77661" lon="3.812">
        <ele>525.39160064</ele>
        <time>2018-07-10T09:44:46.021Z</time>
      </trkpt>
      <trkpt lat="43.7765" lon="3.81167">
        <ele>522.69649659371</ele>
        <time>2018-07-10T09:45:36.021Z</time>
      </trkpt>
      <trkpt lat="43.7766" lon="3.81163">
        <ele>521.63530112</ele>
        <time>2018-07-10T09:46:40.021Z</time>
      </trkpt>
      <trkpt lat="43.77632" lon="3.81122">
        <ele>525.4412259904</ele>
        <time>2018-07-10T09:47:39.021Z</time>
      </trkpt>
      <trkpt lat="43.7767" lon="3.81031">
        <ele>514.25965925617</ele>
        <time>2018-07-10T09:49:04.021Z</time>
      </trkpt>
      <trkpt lat="43.77665" lon="3.80978">
        <ele>498.49189141401</ele>
        <time>2018-07-10T09:50:02.021Z</time>
      </trkpt>
      <trkpt lat="43.77656" lon="3.80883">
        <ele>478.44900180375</ele>
        <time>2018-07-10T09:51:15.021Z</time>
      </trkpt>
      <trkpt lat="43.77641" lon="3.80808">
        <ele>469.34504509468</ele>
        <time>2018-07-10T09:52:15.021Z</time>
      </trkpt>
      <trkpt lat="43.77619" lon="3.80745">
        <ele>465.44834836489</ele>
        <time>2018-07-10T09:53:15.021Z</time>
      </trkpt>
      <trkpt lat="43.77589" lon="3.80679">
        <ele>459.44790016</ele>
        <time>2018-07-10T09:54:15.021Z</time>
      </trkpt>
      <trkpt lat="43.77584" lon="3.80621">
        <ele>459</ele>
        <time>2018-07-10T09:55:00.021Z</time>
      </trkpt>
      <trkpt lat="43.77585" lon="3.80556">
        <ele>455.65629952</ele>
        <time>2018-07-10T09:55:45.021Z</time>
      </trkpt>
      <trkpt lat="43.77572" lon="3.80498">
        <ele>453.08948978114</ele>
        <time>2018-07-10T09:56:36.021Z</time>
      </trkpt>
      <trkpt lat="43.7757" lon="3.80419">
        <ele>451.65175170314</ele>
        <time>2018-07-10T09:57:36.021Z</time>
      </trkpt>
      <trkpt lat="43.77566" lon="3.80364">
        <ele>447.58678691915</ele>
        <time>2018-07-10T09:58:35.021Z</time>
      </trkpt>
      <trkpt lat="43.7756" lon="3.80297">
        <ele>442.04474489057</ele>
        <time>2018-07-10T09:59:36.021Z</time>
      </trkpt>
      <trkpt lat="43.77555" lon="3.80244">
        <ele>442.10330327021</ele>
        <time>2018-07-10T10:00:35.021Z</time>
      </trkpt>
      <trkpt lat="43.77553" lon="3.80181">
        <ele>443.35145149904</ele>
        <time>2018-07-10T10:01:33.021Z</time>
      </trkpt>
      <trkpt lat="43.77541" lon="3.80117">
        <ele>440.69009018936</ele>
        <time>2018-07-10T10:02:35.021Z</time>
      </trkpt>
      <trkpt lat="43.77528" lon="3.80059">
        <ele>434.08948978114</ele>
        <time>2018-07-10T10:03:36.021Z</time>
      </trkpt>
      <trkpt lat="43.77516" lon="3.80012">
        <ele>424.83073126543</ele>
        <time>2018-07-10T10:04:36.021Z</time>
      </trkpt>
      <trkpt lat="43.77505" lon="3.7994">
        <ele>419.34835064083</ele>
        <time>2018-07-10T10:05:35.021Z</time>
      </trkpt>
      <trkpt lat="43.77493" lon="3.79878">
        <ele>418</ele>
        <time>2018-07-10T10:06:38.021Z</time>
      </trkpt>
      <trkpt lat="43.77467" lon="3.7981">
        <ele>420.20660654043</ele>
        <time>2018-07-10T10:07:35.021Z</time>
      </trkpt>
      <trkpt lat="43.77448" lon="3.79723">
        <ele>427.86576532828</ele>
        <time>2018-07-10T10:08:36.021Z</time>
      </trkpt>
      <trkpt lat="43.77435" lon="3.79643">
        <ele>416.00971082772</ele>
        <time>2018-07-10T10:09:36.021Z</time>
      </trkpt>
      <trkpt lat="43.77403" lon="3.79601">
        <ele>410.60440064</ele>
        <time>2018-07-10T10:10:36.021Z</time>
      </trkpt>
      <trkpt lat="43.77375" lon="3.79543">
        <ele>404.83073126543</ele>
        <time>2018-07-10T10:11:36.021Z</time>
      </trkpt>
      <trkpt lat="43.77348" lon="3.79469">
        <ele>400.34824829686</ele>
        <time>2018-07-10T10:12:36.021Z</time>
      </trkpt>
      <trkpt lat="43.77329" lon="3.79421">
        <ele>394.13423467172</ele>
        <time>2018-07-10T10:13:36.021Z</time>
      </trkpt>
      <trkpt lat="43.77306" lon="3.79389">
        <ele>377.313214234</ele>
        <time>2018-07-10T10:14:36.021Z</time>
      </trkpt>
      <trkpt lat="43.77299" lon="3.79356">
        <ele>369.34824829686</ele>
        <time>2018-07-10T10:15:36.021Z</time>
      </trkpt>
      <trkpt lat="43.77293" lon="3.79319">
        <ele>368.09689686586</ele>
        <time>2018-07-10T10:16:34.021Z</time>
      </trkpt>
      <trkpt lat="43.77288" lon="3.79283">
        <ele>358.72963051703</ele>
        <time>2018-07-10T10:17:37.021Z</time>
      </trkpt>
      <trkpt lat="43.77253" lon="3.79254">
        <ele>355.14804816078</ele>
        <time>2018-07-10T10:18:38.021Z</time>
      </trkpt>
      <trkpt lat="43.77063" lon="3.79188">
        <ele>359.38969324787</ele>
        <time>2018-07-10T10:25:57.021Z</time>
      </trkpt>
      <trkpt lat="43.77062" lon="3.79238">
        <ele>345.36980992</ele>
        <time>2018-07-10T10:26:42.021Z</time>
      </trkpt>
      <trkpt lat="43.77061" lon="3.79257">
        <ele>299</ele>
        <time>2018-07-10T10:26:54.021Z</time>
      </trkpt>
    </trkseg>
  </trk>
</gpx>